Terminal Aerodrome Forecast
Issued by NWS

Home | Current Version | Previous Version | Graphics & Text | Print | Product List | Glossary On
Versions: 1 2 3 4 5 6 7 8 9 10 11 12 13 14 15 16 17 18
000
FTUS43 KOAX 261144
TAFCDR
TAF
KCDR 261144Z 2612/2712 02008KT P6SM -SN BKN025 BKN050 OVC100
     FM261800 VRB05KT P6SM BKN050 OVC100
     FM270100 14004KT P6SM BKN100=

USA.gov is the U.S. government's official web portal to all federal, state and local government web resources and services.